createdAt,value
2017-12-04T00:00:39.432Z,70.30
2017-12-04T00:03:15.786Z,71.10
2017-12-04T00:05:51.026Z,71.20
2017-12-04T00:08:24.284Z,71.10
2017-12-04T00:11:03.555Z,71.30
2017-12-04T00:13:38.730Z,71.10
2017-12-04T00:16:13.156Z,71.40
2017-12-04T00:18:49.652Z,71.10
2017-12-04T00:21:23.541Z,71.00
2017-12-04T00:23:58.407Z,71.00
2017-12-04T00:26:32.335Z,71.10
2017-12-04T00:29:07.539Z,70.20
2017-12-04T00:31:41.970Z,71.50
2017-12-04T00:34:18.371Z,71.60
2017-12-04T00:36:53.963Z,73.50
2017-12-04T00:39:28.900Z,74.60
2017-12-04T00:44:46.786Z,73.70
2017-12-04T00:47:25.730Z,73.40
2017-12-04T00:50:00.205Z,73.60
2017-12-04T00:52:34.512Z,74.50
2017-12-04T00:55:08.790Z,73.90
2017-12-04T00:57:44.810Z,74.30
2017-12-04T01:00:18.577Z,74.70
2017-12-04T01:02:51.591Z,74.70
2017-12-04T01:05:26.233Z,74.80
2017-12-04T01:10:39.040Z,74.20
2017-12-04T01:13:17.266Z,74.60
2017-12-04T01:15:50.674Z,75.30
2017-12-04T01:18:24.822Z,75.30
2017-12-04T01:20:59.268Z,75.40
2017-12-04T01:23:39.491Z,75.70
2017-12-04T01:26:19.879Z,75.90
2017-12-04T01:29:06.202Z,75.70
2017-12-04T01:31:44.381Z,75.90
2017-12-04T01:34:24.836Z,77.00
2017-12-04T01:37:06.157Z,77.10
2017-12-04T01:39:43.939Z,78.60
2017-12-04T01:42:18.929Z,81.20
2017-12-04T01:44:53.444Z,82.10
2017-12-04T01:47:29.507Z,81.80
2017-12-04T01:50:09.292Z,81.80
2017-12-04T01:52:43.709Z,82.70
2017-12-04T01:55:17.166Z,81.80
2017-12-04T01:57:54.808Z,81.10
2017-12-04T02:00:39.848Z,81.10
2017-12-04T02:03:13.403Z,80.80
2017-12-04T02:05:46.122Z,80.30
2017-12-04T02:08:21.245Z,79.60
2017-12-04T02:10:56.433Z,81.00
2017-12-04T02:13:42.298Z,80.90
2017-12-04T02:16:18.081Z,80.90
2017-12-04T02:18:53.164Z,80.70
2017-12-04T02:21:30.125Z,80.00
2017-12-04T02:24:04.206Z,79.40
2017-12-04T02:26:38.229Z,79.10
2017-12-04T02:29:15.098Z,78.80
2017-12-04T02:31:48.317Z,78.40
2017-12-04T02:37:04.283Z,78.30
2017-12-04T02:39:39.422Z,78.40
2017-12-04T02:42:13.045Z,79.50
2017-12-04T02:47:21.451Z,78.50
2017-12-04T02:49:53.941Z,78.30
2017-12-04T02:52:26.188Z,78.80
2017-12-04T02:54:58.408Z,78.30
2017-12-04T02:57:30.799Z,78.40
2017-12-04T03:00:02.519Z,79.20
2017-12-04T03:02:36.427Z,79.60
2017-12-04T03:05:11.441Z,80.50
2017-12-04T03:07:49.531Z,80.50
2017-12-04T03:10:24.573Z,80.60
2017-12-04T03:12:59.669Z,80.40
2017-12-04T03:15:33.631Z,80.60
2017-12-04T03:18:06.264Z,80.10
2017-12-04T03:20:40.625Z,80.00
2017-12-04T03:23:13.882Z,80.00
2017-12-04T03:25:48.146Z,80.00
2017-12-04T03:28:30.389Z,79.70
2017-12-04T03:31:04.618Z,78.90
2017-12-04T03:33:39.082Z,79.00
2017-12-04T03:36:14.168Z,78.90
2017-12-04T03:38:52.363Z,78.60
2017-12-04T03:41:28.558Z,78.50
2017-12-04T03:44:05.503Z,78.00
2017-12-04T03:46:40.182Z,78.10
2017-12-04T03:49:13.980Z,77.90
2017-12-04T03:51:53.711Z,77.70
2017-12-04T03:54:29.163Z,77.30
2017-12-04T03:57:05.075Z,77.40
2017-12-04T03:59:40.821Z,77.50
2017-12-04T04:02:15.564Z,78.70
2017-12-04T04:04:57.020Z,78.40
2017-12-04T04:07:34.382Z,79.00
2017-12-04T04:10:07.494Z,78.90
2017-12-04T04:12:41.566Z,78.60
2017-12-04T04:15:17.848Z,78.50
2017-12-04T04:17:52.765Z,78.90
2017-12-04T04:20:37.972Z,80.00
2017-12-04T04:23:18.153Z,80.40
2017-12-04T04:25:52.970Z,79.90
2017-12-04T04:28:25.287Z,80.50
2017-12-04T04:30:58.326Z,80.00
2017-12-04T04:33:32.874Z,79.80
2017-12-04T04:36:09.952Z,80.30
2017-12-04T04:38:46.192Z,81.90
2017-12-04T04:41:19.810Z,81.80
2017-12-04T04:43:54.449Z,81.90
2017-12-04T04:46:29.799Z,81.90
2017-12-04T04:49:05.639Z,81.40
2017-12-04T04:51:40.533Z,81.40
2017-12-04T04:54:16.105Z,82.60
2017-12-04T04:56:50.495Z,84.20
2017-12-04T04:59:26.249Z,84.20
2017-12-04T05:02:00.061Z,84.60
2017-12-04T05:04:33.825Z,84.30
2017-12-04T05:09:50.525Z,84.20
2017-12-04T05:12:25.985Z,86.20
2017-12-04T05:15:02.848Z,86.60
2017-12-04T05:17:37.881Z,87.10
2017-12-04T05:20:12.701Z,86.80
2017-12-04T05:22:47.386Z,86.70
2017-12-04T05:25:24.295Z,87.20
2017-12-04T05:27:57.879Z,87.90
2017-12-04T05:30:32.446Z,88.50
2017-12-04T05:33:09.088Z,88.50
2017-12-04T05:35:51.662Z,88.40
2017-12-04T05:38:27.202Z,88.20
2017-12-04T05:41:07.039Z,88.10
2017-12-04T05:43:40.805Z,87.80
2017-12-04T05:46:14.381Z,88.10
2017-12-04T05:48:49.424Z,88.10
2017-12-04T05:51:23.826Z,88.20
2017-12-04T05:53:58.206Z,88.30
2017-12-04T05:59:19.211Z,88.30
2017-12-04T06:01:53.859Z,88.50
2017-12-04T06:04:28.772Z,88.40
2017-12-04T06:07:04.491Z,87.90
2017-12-04T06:09:39.511Z,87.80
2017-12-04T06:12:14.666Z,87.90
2017-12-04T06:14:51.539Z,88.00
2017-12-04T06:17:26.233Z,87.80
2017-12-04T06:20:03.498Z,87.60
2017-12-04T06:22:39.835Z,87.80
2017-12-04T06:25:14.762Z,87.40
2017-12-04T06:27:48.610Z,87.00
2017-12-04T06:30:22.808Z,86.30
2017-12-04T06:32:57.306Z,86.20
2017-12-04T06:35:34.654Z,86.20
2017-12-04T06:38:11.045Z,85.60
2017-12-04T06:40:46.258Z,85.10
2017-12-04T06:43:23.788Z,84.40
2017-12-04T06:46:01.943Z,84.20
2017-12-04T06:48:35.192Z,84.10
2017-12-04T06:51:14.182Z,84.40
2017-12-04T06:53:48.082Z,84.30
2017-12-04T06:56:24.815Z,84.10
2017-12-04T06:59:02.779Z,83.80
2017-12-04T07:01:43.401Z,84.00
2017-12-04T07:04:20.418Z,83.70
2017-12-04T07:06:54.990Z,83.60
2017-12-04T07:09:31.281Z,84.10
2017-12-04T07:12:08.828Z,84.60
2017-12-04T07:14:43.807Z,84.40
2017-12-04T07:20:02.807Z,84.50
2017-12-04T07:22:39.400Z,84.50
2017-12-04T07:25:13.362Z,84.30
2017-12-04T07:27:50.496Z,84.40
2017-12-04T07:30:25.636Z,84.30
2017-12-04T07:33:04.076Z,84.40
2017-12-04T07:35:42.188Z,84.30
2017-12-04T07:38:19.218Z,84.20
2017-12-04T07:40:54.209Z,83.50
2017-12-04T07:43:30.027Z,83.80
2017-12-04T07:46:06.256Z,83.70
2017-12-04T07:48:40.769Z,83.80
2017-12-04T07:51:15.916Z,83.20
2017-12-04T07:53:50.092Z,82.00
2017-12-04T07:56:35.663Z,82.30
2017-12-04T07:59:11.961Z,82.40
2017-12-04T08:01:50.621Z,82.40
2017-12-04T08:04:25.269Z,82.40
2017-12-04T08:07:00.601Z,82.40
2017-12-04T08:09:35.072Z,81.90
2017-12-04T08:12:11.160Z,82.00
2017-12-04T08:14:45.248Z,82.30
2017-12-04T08:17:20.125Z,82.10
2017-12-04T08:19:59.113Z,82.10
2017-12-04T08:25:21.839Z,81.30
2017-12-04T08:27:58.339Z,79.70
2017-12-04T08:30:36.702Z,80.60
2017-12-04T08:33:10.364Z,80.50
2017-12-04T08:35:44.073Z,81.20
2017-12-04T08:38:19.829Z,81.10
2017-12-04T08:40:53.383Z,80.70
2017-12-04T08:43:29.341Z,80.20
2017-12-04T08:46:03.493Z,79.20
2017-12-04T08:48:37.800Z,80.80
2017-12-04T08:51:12.096Z,81.80
2017-12-04T08:53:47.274Z,81.30
2017-12-04T08:56:22.357Z,81.30
2017-12-04T08:58:57.981Z,80.70
2017-12-04T09:01:33.238Z,80.50
2017-12-04T09:04:06.892Z,80.30
2017-12-04T09:06:42.835Z,80.10
2017-12-04T09:09:20.447Z,80.40
2017-12-04T09:11:58.612Z,80.60
2017-12-04T09:14:34.641Z,80.90
2017-12-04T09:17:07.421Z,80.70
2017-12-04T09:19:40.963Z,80.90
2017-12-04T09:22:17.050Z,82.60
2017-12-04T09:27:30.865Z,82.50
2017-12-04T09:32:49.323Z,84.40
2017-12-04T09:35:26.379Z,84.80
2017-12-04T09:38:01.977Z,84.40
2017-12-04T09:40:37.905Z,84.50
2017-12-04T09:43:12.402Z,84.00
2017-12-04T09:45:50.270Z,84.20
2017-12-04T09:48:25.880Z,83.40
2017-12-04T09:50:59.747Z,83.00
2017-12-04T09:53:35.673Z,83.00
2017-12-04T09:56:10.357Z,83.00
2017-12-04T09:58:43.907Z,82.80
2017-12-04T10:01:18.280Z,81.80
2017-12-04T10:03:53.388Z,82.90
2017-12-04T10:06:26.938Z,83.40
2017-12-04T10:09:01.389Z,83.10
2017-12-04T10:11:36.462Z,83.50
2017-12-04T10:14:11.463Z,83.20
2017-12-04T10:16:46.507Z,83.10
2017-12-04T10:19:20.029Z,82.70
2017-12-04T10:21:54.580Z,81.90
2017-12-04T10:24:34.008Z,82.00
2017-12-04T10:27:07.954Z,82.20
2017-12-04T10:29:43.018Z,82.10
2017-12-04T10:32:31.095Z,82.50
2017-12-04T10:35:15.525Z,81.40
2017-12-04T10:37:51.670Z,81.40
2017-12-04T10:40:26.585Z,80.70
2017-12-04T10:43:01.235Z,79.80
2017-12-04T10:45:37.241Z,79.60
2017-12-04T10:48:14.785Z,80.90
2017-12-04T10:50:50.534Z,80.80
2017-12-04T10:53:27.903Z,80.50
2017-12-04T10:56:04.983Z,80.90
2017-12-04T10:58:40.043Z,80.80
2017-12-04T11:01:13.134Z,80.70
2017-12-04T11:03:51.690Z,81.20
2017-12-04T11:06:25.008Z,81.60
2017-12-04T11:08:58.541Z,81.60
2017-12-04T11:11:34.381Z,81.40
2017-12-04T11:14:08.135Z,82.00
2017-12-04T11:16:42.772Z,81.80
2017-12-04T11:22:06.512Z,82.50
2017-12-04T11:24:40.782Z,82.00
2017-12-04T11:27:15.028Z,81.70
2017-12-04T11:29:59.988Z,81.40
2017-12-04T11:32:34.169Z,80.90
2017-12-04T11:35:08.974Z,80.50
2017-12-04T11:37:42.351Z,80.40
2017-12-04T11:40:16.203Z,79.90
2017-12-04T11:42:50.386Z,79.60
2017-12-04T11:45:28.611Z,79.10
2017-12-04T11:48:04.108Z,78.10
2017-12-04T11:50:40.435Z,78.10
2017-12-04T11:53:15.927Z,77.70
2017-12-04T11:55:50.039Z,77.60
2017-12-04T11:58:26.248Z,78.80
2017-12-04T12:01:02.128Z,79.30
2017-12-04T12:03:46.050Z,79.90
2017-12-04T12:06:20.452Z,79.60
2017-12-04T12:08:56.438Z,80.10
2017-12-04T12:11:35.061Z,81.70
2017-12-04T12:14:11.144Z,82.30
2017-12-04T12:16:45.682Z,82.10
2017-12-04T12:19:20.694Z,82.00
2017-12-04T12:21:57.029Z,82.60
2017-12-04T12:24:33.804Z,82.10
2017-12-04T12:27:08.895Z,81.60
2017-12-04T12:29:46.138Z,81.10
2017-12-04T12:32:21.871Z,80.20
2017-12-04T12:34:56.409Z,80.20
2017-12-04T12:37:34.277Z,80.30
2017-12-04T12:40:12.807Z,80.40
2017-12-04T12:42:47.051Z,80.50
2017-12-04T12:45:28.750Z,83.30
2017-12-04T12:48:03.093Z,83.20
2017-12-04T12:50:39.420Z,83.60
2017-12-04T12:53:14.756Z,84.90
2017-12-04T12:55:51.383Z,86.40
2017-12-04T12:58:31.891Z,86.30
2017-12-04T13:01:08.657Z,86.50
2017-12-04T13:03:44.623Z,86.10
2017-12-04T13:06:19.273Z,86.10
2017-12-04T13:08:53.316Z,86.00
2017-12-04T13:11:27.246Z,86.40
2017-12-04T13:14:01.483Z,86.20
2017-12-04T13:16:38.469Z,86.10
2017-12-04T13:19:18.145Z,86.10
2017-12-04T13:21:54.325Z,86.00
2017-12-04T13:24:30.953Z,85.60
2017-12-04T13:29:45.604Z,85.10
2017-12-04T13:35:22.242Z,84.40
2017-12-04T13:38:01.636Z,84.00
2017-12-04T13:40:36.736Z,83.80
2017-12-04T13:43:11.695Z,83.40
2017-12-04T13:45:47.980Z,82.50
2017-12-04T13:48:22.319Z,81.80
2017-12-04T13:51:00.556Z,80.30
2017-12-04T13:53:35.519Z,80.20
2017-12-04T13:56:10.078Z,79.80
2017-12-04T13:58:49.714Z,80.00
2017-12-04T14:01:25.860Z,79.80
2017-12-04T14:04:02.061Z,80.50
2017-12-04T14:06:37.222Z,80.90
2017-12-04T14:09:15.603Z,80.70
2017-12-04T14:11:53.641Z,80.20
2017-12-04T14:14:28.606Z,79.80
2017-12-04T14:17:04.900Z,80.70
2017-12-04T14:19:40.396Z,81.40
2017-12-04T14:22:15.452Z,81.10
2017-12-04T14:24:50.896Z,81.20
2017-12-04T14:27:24.628Z,80.60
2017-12-04T14:29:59.631Z,81.00
2017-12-04T14:32:33.822Z,80.70
2017-12-04T14:35:07.279Z,80.50
2017-12-04T14:37:42.396Z,80.20
2017-12-04T14:40:18.757Z,80.60
2017-12-04T14:42:54.058Z,80.70
2017-12-04T14:45:28.534Z,81.40
2017-12-04T14:48:04.552Z,82.20
2017-12-04T14:50:43.655Z,82.20
2017-12-04T14:53:18.088Z,84.20
2017-12-04T14:56:00.862Z,84.60
2017-12-04T14:58:34.767Z,84.50
2017-12-04T15:01:07.685Z,84.30
2017-12-04T15:03:42.063Z,84.40
2017-12-04T15:06:17.739Z,84.00
2017-12-04T15:08:54.558Z,84.10
2017-12-04T15:11:31.058Z,83.80
2017-12-04T15:14:09.876Z,84.10
2017-12-04T15:16:45.647Z,83.40
2017-12-04T15:19:17.997Z,82.90
2017-12-04T15:21:55.307Z,83.40
2017-12-04T15:24:27.243Z,83.30
2017-12-04T15:27:01.834Z,84.50
2017-12-04T15:29:44.621Z,84.50
2017-12-04T15:32:18.457Z,84.60
2017-12-04T15:34:53.530Z,84.50
2017-12-04T15:37:31.112Z,85.10
2017-12-04T15:40:06.251Z,85.20
2017-12-04T15:42:46.322Z,85.30
2017-12-04T15:45:19.932Z,85.00
2017-12-04T15:47:55.845Z,84.70
2017-12-04T15:50:34.069Z,84.60
2017-12-04T15:53:08.591Z,84.20
2017-12-04T15:55:43.304Z,83.80
2017-12-04T15:58:25.400Z,83.70
2017-12-04T16:00:59.150Z,83.50
2017-12-04T16:03:34.328Z,82.00
2017-12-04T16:06:08.174Z,81.90
2017-12-04T16:08:46.485Z,82.30
2017-12-04T16:11:27.671Z,82.80
2017-12-04T16:14:04.137Z,84.40
2017-12-04T16:16:39.298Z,84.50
2017-12-04T16:19:13.757Z,84.00
2017-12-04T16:21:48.710Z,84.00
2017-12-04T16:24:23.469Z,83.80
2017-12-04T16:26:57.505Z,83.90
2017-12-04T16:29:31.731Z,83.80
2017-12-04T16:32:06.803Z,83.80
2017-12-04T16:34:40.143Z,83.20
2017-12-04T16:37:17.058Z,83.40
2017-12-04T16:39:50.693Z,82.70
2017-12-04T16:42:28.720Z,81.40
2017-12-04T16:45:01.775Z,81.70
2017-12-04T16:47:35.798Z,82.00
2017-12-04T16:50:11.730Z,80.60
2017-12-04T16:52:47.993Z,80.60
2017-12-04T16:55:23.279Z,78.00
2017-12-04T16:58:02.057Z,75.50
2017-12-04T17:00:35.026Z,74.20
2017-12-04T17:03:08.268Z,72.80
2017-12-04T17:05:41.657Z,71.50
2017-12-04T17:08:16.027Z,70.00
2017-12-04T17:10:53.121Z,69.90
2017-12-04T17:13:30.800Z,71.40
2017-12-04T17:16:05.294Z,71.50
2017-12-04T17:18:40.527Z,71.80
2017-12-04T17:21:12.659Z,71.60
2017-12-04T17:23:45.376Z,68.70
2017-12-04T17:26:18.757Z,68.40
2017-12-04T17:28:53.863Z,68.50
2017-12-04T17:31:28.895Z,68.70
2017-12-04T17:34:02.919Z,67.10
2017-12-04T17:36:37.059Z,65.40
2017-12-04T17:39:14.386Z,65.40
2017-12-04T17:41:49.708Z,64.80
2017-12-04T17:44:23.691Z,63.20
2017-12-04T17:47:14.576Z,63.70
2017-12-04T17:49:51.106Z,63.60
2017-12-04T17:52:25.868Z,62.80
2017-12-04T17:55:00.878Z,65.60
2017-12-04T17:57:35.442Z,65.30
2017-12-04T18:00:12.587Z,64.20
2017-12-04T18:02:47.788Z,64.00
2017-12-04T18:05:22.524Z,61.70
2017-12-04T18:07:58.766Z,61.90
2017-12-04T18:10:32.910Z,66.20
2017-12-04T18:13:09.287Z,66.10
2017-12-04T18:15:43.750Z,62.00
2017-12-04T18:18:21.575Z,64.80
2017-12-04T18:20:59.046Z,64.60
2017-12-04T18:23:33.764Z,66.10
2017-12-04T18:26:08.314Z,61.30
2017-12-04T18:28:46.810Z,59.10
2017-12-04T18:31:20.557Z,58.30
2017-12-04T18:33:54.339Z,63.10
2017-12-04T18:36:36.507Z,58.90
2017-12-04T18:39:11.547Z,58.70
2017-12-04T18:41:47.823Z,55.10
2017-12-04T18:44:21.511Z,58.30
2017-12-04T18:46:58.004Z,54.50
2017-12-04T18:49:36.927Z,56.40
2017-12-04T18:52:12.673Z,60.30
2017-12-04T18:54:47.829Z,60.40
2017-12-04T18:57:23.617Z,55.90
2017-12-04T18:59:58.548Z,51.80
2017-12-04T19:02:42.948Z,50.40
2017-12-04T19:05:15.730Z,53.70
2017-12-04T19:07:51.666Z,53.70
2017-12-04T19:10:32.912Z,52.20
2017-12-04T19:13:08.821Z,51.00
2017-12-04T19:15:44.215Z,50.30
2017-12-04T19:18:17.025Z,53.80
2017-12-04T19:20:49.973Z,49.40
2017-12-04T19:23:31.266Z,52.30
2017-12-04T19:26:07.552Z,53.90
2017-12-04T19:28:49.578Z,54.20
2017-12-04T19:31:26.812Z,53.20
2017-12-04T19:34:01.893Z,51.60
2017-12-04T19:36:35.999Z,51.20
2017-12-04T19:39:09.898Z,48.30
2017-12-04T19:41:43.828Z,50.50
2017-12-04T19:44:18.263Z,51.50
2017-12-04T19:49:37.420Z,46.90
2017-12-04T19:52:18.084Z,50.80
2017-12-04T19:54:51.723Z,47.50
2017-12-04T19:57:34.241Z,46.00
2017-12-04T20:00:11.728Z,47.50
2017-12-04T20:02:50.621Z,51.30
2017-12-04T20:05:24.765Z,51.20
2017-12-04T20:08:05.045Z,50.40
2017-12-04T20:10:40.225Z,48.20
2017-12-04T20:13:14.636Z,51.10
2017-12-04T20:15:50.486Z,48.70
2017-12-04T20:18:25.478Z,47.70
2017-12-04T20:20:58.534Z,49.90
2017-12-04T20:23:36.479Z,50.20
2017-12-04T20:26:14.075Z,50.00
2017-12-04T20:28:47.869Z,48.50
2017-12-04T20:31:24.322Z,48.90
2017-12-04T20:33:58.388Z,47.10
2017-12-04T20:36:38.352Z,48.80
2017-12-04T20:39:13.087Z,47.50
2017-12-04T20:41:47.873Z,47.70
2017-12-04T20:44:24.202Z,48.30
2017-12-04T20:47:00.312Z,44.40
2017-12-04T20:49:36.250Z,44.50
2017-12-04T20:52:13.240Z,45.70
2017-12-04T20:54:46.927Z,49.00
2017-12-04T20:57:22.053Z,47.30
2017-12-04T20:59:55.991Z,48.30
2017-12-04T21:02:29.035Z,50.30
2017-12-04T21:05:03.572Z,50.00
2017-12-04T21:07:42.025Z,51.10
2017-12-04T21:10:29.405Z,52.90
2017-12-04T21:13:20.593Z,55.60
2017-12-04T21:18:48.038Z,55.20
2017-12-04T21:21:32.111Z,56.20
2017-12-04T21:24:07.210Z,52.10
2017-12-04T21:26:49.135Z,51.10
2017-12-04T21:29:26.446Z,52.60
2017-12-04T21:32:00.484Z,52.80
2017-12-04T21:34:34.296Z,52.80
2017-12-04T21:37:10.560Z,53.80
2017-12-04T21:39:43.308Z,52.90
2017-12-04T21:42:19.134Z,52.50
2017-12-04T21:45:02.669Z,52.80
2017-12-04T21:47:39.002Z,52.80
2017-12-04T21:50:12.586Z,51.90
2017-12-04T21:52:47.026Z,51.90
2017-12-04T21:55:20.462Z,54.40
2017-12-04T21:57:56.659Z,56.10
2017-12-04T22:00:29.349Z,56.20
2017-12-04T22:03:04.286Z,54.60
2017-12-04T22:05:39.566Z,55.20
2017-12-04T22:08:12.612Z,56.90
2017-12-04T22:10:54.347Z,56.90
2017-12-04T22:13:30.070Z,57.00
2017-12-04T22:16:05.888Z,57.70
2017-12-04T22:18:43.773Z,58.00
2017-12-04T22:21:18.927Z,57.70
2017-12-04T22:24:00.329Z,58.00
2017-12-04T22:26:34.182Z,57.70
2017-12-04T22:29:07.220Z,56.80
2017-12-04T22:31:41.890Z,56.80
2017-12-04T22:34:17.346Z,57.90
2017-12-04T22:36:55.359Z,57.40
2017-12-04T22:39:28.934Z,57.40
2017-12-04T22:42:02.097Z,56.70
2017-12-04T22:44:36.413Z,57.40
2017-12-04T22:47:10.016Z,58.20
2017-12-04T22:49:45.261Z,58.10
2017-12-04T22:52:19.050Z,57.00
2017-12-04T22:54:51.961Z,58.00
2017-12-04T22:57:26.473Z,57.70
2017-12-04T22:59:59.438Z,57.30
2017-12-04T23:02:36.476Z,57.90
2017-12-04T23:05:10.445Z,58.00
2017-12-04T23:07:46.660Z,56.50
2017-12-04T23:10:23.450Z,57.60
2017-12-04T23:12:57.359Z,58.20
2017-12-04T23:15:33.283Z,57.80
2017-12-04T23:18:09.083Z,58.70
2017-12-04T23:20:42.914Z,58.90
2017-12-04T23:23:17.909Z,58.60
2017-12-04T23:25:53.810Z,59.30
2017-12-04T23:28:28.460Z,60.00
2017-12-04T23:31:05.126Z,59.20
2017-12-04T23:33:41.862Z,58.30
2017-12-04T23:36:15.574Z,58.70
2017-12-04T23:38:50.710Z,59.30
2017-12-04T23:41:23.805Z,59.70
2017-12-04T23:43:59.163Z,59.40
2017-12-04T23:46:34.124Z,59.90
2017-12-04T23:49:10.144Z,60.20
2017-12-04T23:51:45.914Z,60.30
2017-12-04T23:54:26.623Z,60.10
2017-12-04T23:57:01.712Z,60.30
2017-12-04T23:59:36.285Z,60.30
